sensor_id;sensor_type;location;lat;lon;timestamp;P1;durP1;ratioP1;P2;durP2;ratioP2
5819;SDS011;2936;47.348;9.640;2023-12-20T00:00:20;9.73;;;8.43;;
5819;SDS011;2936;47.348;9.640;2023-12-20T00:02:48;11.20;;;9.48;;
5819;SDS011;2936;47.348;9.640;2023-12-20T00:05:15;16.13;;;8.60;;
5819;SDS011;2936;47.348;9.640;2023-12-20T00:07:43;10.52;;;8.30;;
5819;SDS011;2936;47.348;9.640;2023-12-20T00:10:11;10.63;;;8.73;;
5819;SDS011;2936;47.348;9.640;2023-12-20T00:12:38;45.60;;;8.98;;
5819;SDS011;2936;47.348;9.640;2023-12-20T00:15:07;21.42;;;8.00;;
5819;SDS011;2936;47.348;9.640;2023-12-20T00:17:37;9.68;;;8.65;;
5819;SDS011;2936;47.348;9.640;2023-12-20T00:20:05;13.45;;;9.82;;
5819;SDS011;2936;47.348;9.640;2023-12-20T00:22:33;11.10;;;8.13;;
5819;SDS011;2936;47.348;9.640;2023-12-20T00:25:01;11.60;;;8.95;;
5819;SDS011;2936;47.348;9.640;2023-12-20T00:27:29;16.35;;;9.93;;
5819;SDS011;2936;47.348;9.640;2023-12-20T00:29:56;10.30;;;8.27;;
5819;SDS011;2936;47.348;9.640;2023-12-20T00:32:24;9.90;;;8.30;;
5819;SDS011;2936;47.348;9.640;2023-12-20T00:34:53;10.98;;;8.55;;
5819;SDS011;2936;47.348;9.640;2023-12-20T00:37:21;10.30;;;8.10;;
5819;SDS011;2936;47.348;9.640;2023-12-20T00:39:51;11.40;;;8.90;;
5819;SDS011;2936;47.348;9.640;2023-12-20T00:42:21;16.38;;;9.25;;
5819;SDS011;2936;47.348;9.640;2023-12-20T00:44:48;10.68;;;8.52;;
5819;SDS011;2936;47.348;9.640;2023-12-20T00:47:22;13.15;;;9.82;;
5819;SDS011;2936;47.348;9.640;2023-12-20T00:49:50;8.60;;;7.80;;
5819;SDS011;2936;47.348;9.640;2023-12-20T00:52:20;8.70;;;7.57;;
5819;SDS011;2936;47.348;9.640;2023-12-20T00:54:48;8.07;;;7.07;;
5819;SDS011;2936;47.348;9.640;2023-12-20T00:57:15;8.73;;;7.68;;
5819;SDS011;2936;47.348;9.640;2023-12-20T00:59:43;8.75;;;7.85;;
5819;SDS011;2936;47.348;9.640;2023-12-20T01:02:10;16.80;;;9.90;;
5819;SDS011;2936;47.348;9.640;2023-12-20T01:04:38;12.68;;;9.00;;
5819;SDS011;2936;47.348;9.640;2023-12-20T01:07:05;10.85;;;8.20;;
5819;SDS011;2936;47.348;9.640;2023-12-20T01:09:35;8.70;;;7.82;;
5819;SDS011;2936;47.348;9.640;2023-12-20T01:12:03;11.88;;;8.90;;
5819;SDS011;2936;47.348;9.640;2023-12-20T01:14:31;9.68;;;7.82;;
5819;SDS011;2936;47.348;9.640;2023-12-20T01:16:59;9.48;;;8.48;;
5819;SDS011;2936;47.348;9.640;2023-12-20T01:19:26;14.40;;;8.20;;
5819;SDS011;2936;47.348;9.640;2023-12-20T01:21:54;9.40;;;8.50;;
5819;SDS011;2936;47.348;9.640;2023-12-20T01:24:22;10.18;;;8.57;;
5819;SDS011;2936;47.348;9.640;2023-12-20T01:26:52;9.43;;;8.43;;
5819;SDS011;2936;47.348;9.640;2023-12-20T01:29:19;8.82;;;7.93;;
5819;SDS011;2936;47.348;9.640;2023-12-20T01:31:47;8.93;;;7.47;;
5819;SDS011;2936;47.348;9.640;2023-12-20T01:34:15;9.90;;;8.25;;
5819;SDS011;2936;47.348;9.640;2023-12-20T01:36:43;11.63;;;9.73;;
5819;SDS011;2936;47.348;9.640;2023-12-20T01:39:11;13.15;;;8.65;;
5819;SDS011;2936;47.348;9.640;2023-12-20T01:41:39;14.55;;;9.30;;
5819;SDS011;2936;47.348;9.640;2023-12-20T01:44:08;11.43;;;8.95;;
5819;SDS011;2936;47.348;9.640;2023-12-20T01:46:38;12.27;;;8.55;;
5819;SDS011;2936;47.348;9.640;2023-12-20T01:49:07;13.38;;;8.35;;
5819;SDS011;2936;47.348;9.640;2023-12-20T01:51:35;10.05;;;8.55;;
5819;SDS011;2936;47.348;9.640;2023-12-20T01:54:05;12.70;;;8.40;;
5819;SDS011;2936;47.348;9.640;2023-12-20T01:56:34;13.38;;;8.82;;
5819;SDS011;2936;47.348;9.640;2023-12-20T01:59:01;12.27;;;8.77;;
5819;SDS011;2936;47.348;9.640;2023-12-20T02:01:31;28.17;;;7.95;;
5819;SDS011;2936;47.348;9.640;2023-12-20T02:03:59;9.15;;;8.23;;
5819;SDS011;2936;47.348;9.640;2023-12-20T02:06:28;8.50;;;7.70;;
5819;SDS011;2936;47.348;9.640;2023-12-20T02:08:57;10.95;;;9.30;;
5819;SDS011;2936;47.348;9.640;2023-12-20T02:11:25;11.40;;;8.60;;
5819;SDS011;2936;47.348;9.640;2023-12-20T02:13:54;9.40;;;8.48;;
5819;SDS011;2936;47.348;9.640;2023-12-20T02:16:22;12.77;;;9.00;;
5819;SDS011;2936;47.348;9.640;2023-12-20T02:18:51;10.77;;;9.07;;
5819;SDS011;2936;47.348;9.640;2023-12-20T02:23:50;9.60;;;8.63;;
5819;SDS011;2936;47.348;9.640;2023-12-20T02:26:18;14.10;;;9.05;;
5819;SDS011;2936;47.348;9.640;2023-12-20T02:28:45;10.95;;;8.82;;
5819;SDS011;2936;47.348;9.640;2023-12-20T02:31:13;12.15;;;8.45;;
5819;SDS011;2936;47.348;9.640;2023-12-20T02:33:40;9.63;;;8.55;;
5819;SDS011;2936;47.348;9.640;2023-12-20T02:36:08;13.27;;;10.02;;
5819;SDS011;2936;47.348;9.640;2023-12-20T02:38:35;13.00;;;8.85;;
5819;SDS011;2936;47.348;9.640;2023-12-20T02:41:04;10.85;;;8.75;;
5819;SDS011;2936;47.348;9.640;2023-12-20T02:43:31;13.48;;;9.48;;
5819;SDS011;2936;47.348;9.640;2023-12-20T02:45:59;12.68;;;9.73;;
5819;SDS011;2936;47.348;9.640;2023-12-20T02:48:27;17.02;;;9.50;;
5819;SDS011;2936;47.348;9.640;2023-12-20T02:50:58;13.77;;;9.43;;
5819;SDS011;2936;47.348;9.640;2023-12-20T02:53:26;15.75;;;8.43;;
5819;SDS011;2936;47.348;9.640;2023-12-20T02:55:53;17.10;;;9.50;;
5819;SDS011;2936;47.348;9.640;2023-12-20T02:58:23;10.00;;;8.75;;
5819;SDS011;2936;47.348;9.640;2023-12-20T03:00:51;13.13;;;9.10;;
5819;SDS011;2936;47.348;9.640;2023-12-20T03:03:19;10.98;;;8.57;;
5819;SDS011;2936;47.348;9.640;2023-12-20T03:05:48;11.18;;;8.77;;
5819;SDS011;2936;47.348;9.640;2023-12-20T03:08:16;10.50;;;8.30;;
5819;SDS011;2936;47.348;9.640;2023-12-20T03:10:43;8.70;;;7.85;;
5819;SDS011;2936;47.348;9.640;2023-12-20T03:13:11;12.80;;;9.18;;
5819;SDS011;2936;47.348;9.640;2023-12-20T03:15:40;9.05;;;7.75;;
5819;SDS011;2936;47.348;9.640;2023-12-20T03:18:08;16.08;;;9.50;;
5819;SDS011;2936;47.348;9.640;2023-12-20T03:20:36;12.63;;;9.32;;
5819;SDS011;2936;47.348;9.640;2023-12-20T03:23:03;8.13;;;7.38;;
5819;SDS011;2936;47.348;9.640;2023-12-20T03:25:31;11.18;;;8.30;;
5819;SDS011;2936;47.348;9.640;2023-12-20T03:28:00;10.80;;;8.90;;
5819;SDS011;2936;47.348;9.640;2023-12-20T03:30:28;14.95;;;9.00;;
5819;SDS011;2936;47.348;9.640;2023-12-20T03:32:58;10.65;;;8.48;;
5819;SDS011;2936;47.348;9.640;2023-12-20T03:35:25;14.48;;;8.18;;
5819;SDS011;2936;47.348;9.640;2023-12-20T03:37:53;12.57;;;9.32;;
5819;SDS011;2936;47.348;9.640;2023-12-20T03:40:22;12.68;;;8.75;;
5819;SDS011;2936;47.348;9.640;2023-12-20T03:42:50;16.92;;;9.13;;
5819;SDS011;2936;47.348;9.640;2023-12-20T03:45:17;13.57;;;8.88;;
5819;SDS011;2936;47.348;9.640;2023-12-20T03:47:45;10.80;;;9.00;;
5819;SDS011;2936;47.348;9.640;2023-12-20T03:50:14;12.73;;;8.90;;
5819;SDS011;2936;47.348;9.640;2023-12-20T03:52:42;14.43;;;10.32;;
5819;SDS011;2936;47.348;9.640;2023-12-20T03:55:11;15.77;;;9.55;;
5819;SDS011;2936;47.348;9.640;2023-12-20T03:57:38;8.38;;;7.45;;
5819;SDS011;2936;47.348;9.640;2023-12-20T04:00:07;10.02;;;7.93;;
5819;SDS011;2936;47.348;9.640;2023-12-20T04:02:35;15.07;;;8.60;;
5819;SDS011;2936;47.348;9.640;2023-12-20T04:05:04;11.65;;;8.57;;
5819;SDS011;2936;47.348;9.640;2023-12-20T04:07:33;10.35;;;9.23;;
5819;SDS011;2936;47.348;9.640;2023-12-20T04:10:02;9.60;;;8.15;;
5819;SDS011;2936;47.348;9.640;2023-12-20T04:12:30;10.65;;;8.70;;
5819;SDS011;2936;47.348;9.640;2023-12-20T04:14:57;8.82;;;8.10;;
5819;SDS011;2936;47.348;9.640;2023-12-20T04:17:25;14.55;;;9.10;;
5819;SDS011;2936;47.348;9.640;2023-12-20T04:19:53;10.55;;;8.27;;
5819;SDS011;2936;47.348;9.640;2023-12-20T04:22:21;9.68;;;8.55;;
5819;SDS011;2936;47.348;9.640;2023-12-20T04:24:51;12.52;;;8.82;;
5819;SDS011;2936;47.348;9.640;2023-12-20T04:27:18;15.88;;;9.20;;
5819;SDS011;2936;47.348;9.640;2023-12-20T04:29:46;14.25;;;8.82;;
5819;SDS011;2936;47.348;9.640;2023-12-20T04:32:14;9.82;;;8.63;;
5819;SDS011;2936;47.348;9.640;2023-12-20T04:34:41;11.70;;;8.43;;
5819;SDS011;2936;47.348;9.640;2023-12-20T04:37:09;7.82;;;7.03;;
5819;SDS011;2936;47.348;9.640;2023-12-20T04:39:37;9.32;;;8.10;;
5819;SDS011;2936;47.348;9.640;2023-12-20T04:42:07;12.05;;;8.50;;
5819;SDS011;2936;47.348;9.640;2023-12-20T04:44:35;12.85;;;8.77;;
5819;SDS011;2936;47.348;9.640;2023-12-20T04:47:03;9.63;;;8.68;;
5819;SDS011;2936;47.348;9.640;2023-12-20T04:49:30;9.27;;;8.30;;
5819;SDS011;2936;47.348;9.640;2023-12-20T04:51:58;18.90;;;9.20;;
5819;SDS011;2936;47.348;9.640;2023-12-20T04:54:26;12.48;;;10.10;;
5819;SDS011;2936;47.348;9.640;2023-12-20T04:56:54;11.50;;;9.32;;
5819;SDS011;2936;47.348;9.640;2023-12-20T04:59:23;12.15;;;9.23;;
5819;SDS011;2936;47.348;9.640;2023-12-20T05:01:51;19.92;;;9.32;;
5819;SDS011;2936;47.348;9.640;2023-12-20T05:04:20;10.10;;;9.05;;
5819;SDS011;2936;47.348;9.640;2023-12-20T05:06:48;11.25;;;8.95;;
5819;SDS011;2936;47.348;9.640;2023-12-20T05:09:16;10.38;;;9.32;;
5819;SDS011;2936;47.348;9.640;2023-12-20T05:11:44;10.68;;;9.43;;
5819;SDS011;2936;47.348;9.640;2023-12-20T05:14:12;11.52;;;9.30;;
5819;SDS011;2936;47.348;9.640;2023-12-20T05:16:54;11.65;;;9.23;;
5819;SDS011;2936;47.348;9.640;2023-12-20T05:19:21;10.95;;;9.63;;
5819;SDS011;2936;47.348;9.640;2023-12-20T05:21:49;12.48;;;10.20;;
5819;SDS011;2936;47.348;9.640;2023-12-20T05:24:17;17.80;;;10.57;;
5819;SDS011;2936;47.348;9.640;2023-12-20T05:26:45;12.70;;;9.40;;
5819;SDS011;2936;47.348;9.640;2023-12-20T05:29:13;19.20;;;10.40;;
5819;SDS011;2936;47.348;9.640;2023-12-20T05:31:41;12.88;;;10.00;;
5819;SDS011;2936;47.348;9.640;2023-12-20T05:34:11;16.35;;;10.05;;
5819;SDS011;2936;47.348;9.640;2023-12-20T05:36:38;23.42;;;12.00;;
5819;SDS011;2936;47.348;9.640;2023-12-20T05:39:06;15.85;;;10.57;;
5819;SDS011;2936;47.348;9.640;2023-12-20T05:41:34;21.55;;;9.75;;
5819;SDS011;2936;47.348;9.640;2023-12-20T05:44:02;20.50;;;12.40;;
5819;SDS011;2936;47.348;9.640;2023-12-20T05:46:30;20.13;;;10.30;;
5819;SDS011;2936;47.348;9.640;2023-12-20T05:48:58;9.82;;;7.85;;
5819;SDS011;2936;47.348;9.640;2023-12-20T05:51:27;23.65;;;11.40;;
5819;SDS011;2936;47.348;9.640;2023-12-20T05:53:56;18.52;;;11.15;;
5819;SDS011;2936;47.348;9.640;2023-12-20T05:56:23;42.20;;;12.40;;
5819;SDS011;2936;47.348;9.640;2023-12-20T05:58:51;29.23;;;11.68;;
5819;SDS011;2936;47.348;9.640;2023-12-20T06:01:19;22.83;;;10.60;;
5819;SDS011;2936;47.348;9.640;2023-12-20T06:03:47;26.20;;;12.25;;
5819;SDS011;2936;47.348;9.640;2023-12-20T06:06:15;27.83;;;10.60;;
5819;SDS011;2936;47.348;9.640;2023-12-20T06:08:44;10.07;;;9.07;;
5819;SDS011;2936;47.348;9.640;2023-12-20T06:11:12;23.50;;;10.43;;
5819;SDS011;2936;47.348;9.640;2023-12-20T06:13:40;16.77;;;10.88;;
5819;SDS011;2936;47.348;9.640;2023-12-20T06:16:07;15.30;;;10.18;;
5819;SDS011;2936;47.348;9.640;2023-12-20T06:18:35;13.10;;;10.80;;
5819;SDS011;2936;47.348;9.640;2023-12-20T06:21:03;34.38;;;11.38;;
5819;SDS011;2936;47.348;9.640;2023-12-20T06:23:32;32.08;;;10.68;;
5819;SDS011;2936;47.348;9.640;2023-12-20T06:26:01;17.30;;;11.35;;
5819;SDS011;2936;47.348;9.640;2023-12-20T06:28:29;48.50;;;12.48;;
5819;SDS011;2936;47.348;9.640;2023-12-20T06:30:57;29.58;;;11.32;;
5819;SDS011;2936;47.348;9.640;2023-12-20T06:33:26;35.08;;;12.07;;
5819;SDS011;2936;47.348;9.640;2023-12-20T06:35:54;29.52;;;10.80;;
5819;SDS011;2936;47.348;9.640;2023-12-20T06:38:22;48.63;;;9.95;;
5819;SDS011;2936;47.348;9.640;2023-12-20T06:40:50;49.15;;;19.63;;
5819;SDS011;2936;47.348;9.640;2023-12-20T06:43:20;28.73;;;13.02;;
5819;SDS011;2936;47.348;9.640;2023-12-20T06:45:47;21.77;;;10.10;;
5819;SDS011;2936;47.348;9.640;2023-12-20T06:48:16;12.50;;;8.90;;
5819;SDS011;2936;47.348;9.640;2023-12-20T06:50:44;15.48;;;8.25;;
5819;SDS011;2936;47.348;9.640;2023-12-20T06:53:11;23.42;;;11.25;;
5819;SDS011;2936;47.348;9.640;2023-12-20T06:55:39;27.35;;;11.30;;
5819;SDS011;2936;47.348;9.640;2023-12-20T06:58:07;21.35;;;10.75;;
5819;SDS011;2936;47.348;9.640;2023-12-20T07:00:37;7.35;;;6.72;;
5819;SDS011;2936;47.348;9.640;2023-12-20T07:03:05;15.43;;;7.55;;
5819;SDS011;2936;47.348;9.640;2023-12-20T07:05:33;11.27;;;7.25;;
5819;SDS011;2936;47.348;9.640;2023-12-20T07:08:00;7.30;;;6.47;;
5819;SDS011;2936;47.348;9.640;2023-12-20T07:10:28;8.73;;;6.45;;
5819;SDS011;2936;47.348;9.640;2023-12-20T07:12:55;10.77;;;7.18;;
5819;SDS011;2936;47.348;9.640;2023-12-20T07:15:23;12.82;;;7.30;;
5819;SDS011;2936;47.348;9.640;2023-12-20T07:17:53;7.43;;;6.70;;
5819;SDS011;2936;47.348;9.640;2023-12-20T07:20:21;12.88;;;6.30;;
5819;SDS011;2936;47.348;9.640;2023-12-20T07:22:48;7.75;;;6.03;;
5819;SDS011;2936;47.348;9.640;2023-12-20T07:25:16;5.38;;;4.88;;
5819;SDS011;2936;47.348;9.640;2023-12-20T07:27:45;28.55;;;6.72;;
5819;SDS011;2936;47.348;9.640;2023-12-20T07:30:13;8.80;;;6.22;;
5819;SDS011;2936;47.348;9.640;2023-12-20T07:32:42;13.57;;;6.40;;
5819;SDS011;2936;47.348;9.640;2023-12-20T07:35:11;7.57;;;6.10;;
5819;SDS011;2936;47.348;9.640;2023-12-20T07:37:38;18.65;;;8.05;;
5819;SDS011;2936;47.348;9.640;2023-12-20T07:40:07;9.80;;;5.43;;
5819;SDS011;2936;47.348;9.640;2023-12-20T07:42:35;8.48;;;6.25;;
5819;SDS011;2936;47.348;9.640;2023-12-20T07:45:03;10.63;;;6.53;;
5819;SDS011;2936;47.348;9.640;2023-12-20T07:47:31;11.65;;;6.65;;
5819;SDS011;2936;47.348;9.640;2023-12-20T07:49:58;21.25;;;7.07;;
5819;SDS011;2936;47.348;9.640;2023-12-20T07:52:28;11.90;;;8.23;;
5819;SDS011;2936;47.348;9.640;2023-12-20T07:54:56;7.68;;;6.88;;
5819;SDS011;2936;47.348;9.640;2023-12-20T07:57:24;12.23;;;7.25;;
5819;SDS011;2936;47.348;9.640;2023-12-20T07:59:51;39.03;;;8.73;;
5819;SDS011;2936;47.348;9.640;2023-12-20T08:02:19;12.15;;;8.18;;
5819;SDS011;2936;47.348;9.640;2023-12-20T08:04:46;20.75;;;8.48;;
5819;SDS011;2936;47.348;9.640;2023-12-20T08:07:14;23.17;;;8.70;;
5819;SDS011;2936;47.348;9.640;2023-12-20T08:09:45;17.15;;;9.52;;
5819;SDS011;2936;47.348;9.640;2023-12-20T08:12:12;12.13;;;9.20;;
5819;SDS011;2936;47.348;9.640;2023-12-20T08:14:42;15.00;;;9.15;;
5819;SDS011;2936;47.348;9.640;2023-12-20T08:17:09;15.75;;;9.80;;
5819;SDS011;2936;47.348;9.640;2023-12-20T08:19:37;17.67;;;10.70;;
5819;SDS011;2936;47.348;9.640;2023-12-20T08:22:05;17.60;;;11.45;;
5819;SDS011;2936;47.348;9.640;2023-12-20T08:24:32;17.40;;;9.63;;
5819;SDS011;2936;47.348;9.640;2023-12-20T08:27:02;18.80;;;10.18;;
5819;SDS011;2936;47.348;9.640;2023-12-20T08:29:29;21.98;;;9.70;;
5819;SDS011;2936;47.348;9.640;2023-12-20T08:31:57;20.33;;;11.90;;
5819;SDS011;2936;47.348;9.640;2023-12-20T08:34:24;14.23;;;10.35;;
5819;SDS011;2936;47.348;9.640;2023-12-20T08:36:52;17.98;;;10.35;;
5819;SDS011;2936;47.348;9.640;2023-12-20T08:39:20;23.80;;;10.40;;
5819;SDS011;2936;47.348;9.640;2023-12-20T08:41:48;14.90;;;9.05;;
5819;SDS011;2936;47.348;9.640;2023-12-20T08:44:17;10.63;;;8.55;;
5819;SDS011;2936;47.348;9.640;2023-12-20T08:46:46;15.20;;;10.77;;
5819;SDS011;2936;47.348;9.640;2023-12-20T08:49:14;14.35;;;10.00;;
5819;SDS011;2936;47.348;9.640;2023-12-20T08:51:42;20.88;;;11.02;;
5819;SDS011;2936;47.348;9.640;2023-12-20T08:54:09;20.70;;;13.02;;
5819;SDS011;2936;47.348;9.640;2023-12-20T08:56:38;13.18;;;11.18;;
5819;SDS011;2936;47.348;9.640;2023-12-20T08:59:06;18.45;;;10.50;;
5819;SDS011;2936;47.348;9.640;2023-12-20T09:01:36;11.57;;;10.38;;
5819;SDS011;2936;47.348;9.640;2023-12-20T09:04:03;26.52;;;10.80;;
5819;SDS011;2936;47.348;9.640;2023-12-20T09:06:32;16.73;;;11.68;;
5819;SDS011;2936;47.348;9.640;2023-12-20T09:08:59;14.35;;;9.90;;
5819;SDS011;2936;47.348;9.640;2023-12-20T09:11:27;9.88;;;8.88;;
5819;SDS011;2936;47.348;9.640;2023-12-20T09:13:55;11.50;;;9.60;;
5819;SDS011;2936;47.348;9.640;2023-12-20T09:16:23;11.13;;;9.65;;
5819;SDS011;2936;47.348;9.640;2023-12-20T09:18:53;12.10;;;8.10;;
5819;SDS011;2936;47.348;9.640;2023-12-20T09:21:20;19.25;;;9.05;;
5819;SDS011;2936;47.348;9.640;2023-12-20T09:23:48;14.38;;;8.95;;
5819;SDS011;2936;47.348;9.640;2023-12-20T09:26:16;14.27;;;8.13;;
5819;SDS011;2936;47.348;9.640;2023-12-20T09:28:44;11.10;;;9.88;;
5819;SDS011;2936;47.348;9.640;2023-12-20T09:31:13;20.98;;;9.98;;
5819;SDS011;2936;47.348;9.640;2023-12-20T09:33:40;19.92;;;9.20;;
5819;SDS011;2936;47.348;9.640;2023-12-20T09:36:10;13.52;;;10.02;;
5819;SDS011;2936;47.348;9.640;2023-12-20T09:38:37;30.38;;;11.60;;
5819;SDS011;2936;47.348;9.640;2023-12-20T09:41:05;14.88;;;10.30;;
5819;SDS011;2936;47.348;9.640;2023-12-20T09:43:32;20.27;;;9.98;;
5819;SDS011;2936;47.348;9.640;2023-12-20T09:46:04;14.90;;;9.57;;
5819;SDS011;2936;47.348;9.640;2023-12-20T09:48:33;19.17;;;9.27;;
5819;SDS011;2936;47.348;9.640;2023-12-20T09:51:02;22.13;;;14.15;;
5819;SDS011;2936;47.348;9.640;2023-12-20T09:53:31;14.60;;;12.93;;
5819;SDS011;2936;47.348;9.640;2023-12-20T09:56:00;20.05;;;10.80;;
5819;SDS011;2936;47.348;9.640;2023-12-20T09:58:29;20.77;;;13.43;;
5819;SDS011;2936;47.348;9.640;2023-12-20T10:00:56;18.65;;;11.80;;
5819;SDS011;2936;47.348;9.640;2023-12-20T10:03:25;17.95;;;11.75;;
5819;SDS011;2936;47.348;9.640;2023-12-20T10:05:53;16.23;;;12.02;;
5819;SDS011;2936;47.348;9.640;2023-12-20T10:08:21;14.60;;;11.68;;
5819;SDS011;2936;47.348;9.640;2023-12-20T10:10:51;17.15;;;11.00;;
5819;SDS011;2936;47.348;9.640;2023-12-20T10:13:19;21.00;;;10.70;;
5819;SDS011;2936;47.348;9.640;2023-12-20T10:15:46;17.83;;;10.60;;
5819;SDS011;2936;47.348;9.640;2023-12-20T10:18:15;12.40;;;10.65;;
5819;SDS011;2936;47.348;9.640;2023-12-20T10:20:42;13.30;;;10.13;;
5819;SDS011;2936;47.348;9.640;2023-12-20T10:23:10;12.23;;;10.55;;
5819;SDS011;2936;47.348;9.640;2023-12-20T10:25:38;23.98;;;11.07;;
5819;SDS011;2936;47.348;9.640;2023-12-20T10:28:12;19.02;;;11.18;;
5819;SDS011;2936;47.348;9.640;2023-12-20T10:30:42;16.42;;;12.20;;
5819;SDS011;2936;47.348;9.640;2023-12-20T10:33:10;14.95;;;12.07;;
5819;SDS011;2936;47.348;9.640;2023-12-20T10:35:38;12.57;;;11.00;;
5819;SDS011;2936;47.348;9.640;2023-12-20T10:38:06;13.55;;;10.63;;
5819;SDS011;2936;47.348;9.640;2023-12-20T10:40:34;12.27;;;8.43;;
5819;SDS011;2936;47.348;9.640;2023-12-20T10:43:03;16.83;;;9.80;;
5819;SDS011;2936;47.348;9.640;2023-12-20T10:45:32;10.82;;;9.30;;
5819;SDS011;2936;47.348;9.640;2023-12-20T10:48:00;13.20;;;9.60;;
5819;SDS011;2936;47.348;9.640;2023-12-20T10:50:28;11.25;;;9.13;;
5819;SDS011;2936;47.348;9.640;2023-12-20T10:52:56;14.27;;;10.48;;
5819;SDS011;2936;47.348;9.640;2023-12-20T10:55:24;11.02;;;9.93;;
5819;SDS011;2936;47.348;9.640;2023-12-20T10:57:53;14.23;;;11.20;;
5819;SDS011;2936;47.348;9.640;2023-12-20T11:00:22;11.25;;;9.25;;
5819;SDS011;2936;47.348;9.640;2023-12-20T11:02:52;10.20;;;9.05;;
5819;SDS011;2936;47.348;9.640;2023-12-20T11:05:23;14.68;;;9.52;;
5819;SDS011;2936;47.348;9.640;2023-12-20T11:07:55;10.90;;;9.77;;
5819;SDS011;2936;47.348;9.640;2023-12-20T11:10:29;21.48;;;9.48;;
5819;SDS011;2936;47.348;9.640;2023-12-20T11:12:59;13.30;;;9.75;;
5819;SDS011;2936;47.348;9.640;2023-12-20T11:15:30;9.90;;;8.20;;
5819;SDS011;2936;47.348;9.640;2023-12-20T11:17:59;10.25;;;8.70;;
5819;SDS011;2936;47.348;9.640;2023-12-20T11:20:35;11.43;;;7.90;;
5819;SDS011;2936;47.348;9.640;2023-12-20T11:23:03;13.55;;;8.65;;
5819;SDS011;2936;47.348;9.640;2023-12-20T11:25:35;31.90;;;9.02;;
5819;SDS011;2936;47.348;9.640;2023-12-20T11:28:21;11.40;;;8.38;;
5819;SDS011;2936;47.348;9.640;2023-12-20T11:30:50;13.80;;;8.68;;
5819;SDS011;2936;47.348;9.640;2023-12-20T11:33:23;13.95;;;9.60;;
5819;SDS011;2936;47.348;9.640;2023-12-20T11:35:51;14.30;;;8.63;;
5819;SDS011;2936;47.348;9.640;2023-12-20T11:38:20;18.85;;;9.85;;
5819;SDS011;2936;47.348;9.640;2023-12-20T11:40:48;13.52;;;8.98;;
5819;SDS011;2936;47.348;9.640;2023-12-20T11:43:29;10.13;;;9.10;;
5819;SDS011;2936;47.348;9.640;2023-12-20T11:46:02;12.60;;;11.30;;
5819;SDS011;2936;47.348;9.640;2023-12-20T11:48:32;20.70;;;12.48;;
5819;SDS011;2936;47.348;9.640;2023-12-20T11:51:00;14.40;;;11.13;;
5819;SDS011;2936;47.348;9.640;2023-12-20T11:53:29;14.65;;;11.00;;
5819;SDS011;2936;47.348;9.640;2023-12-20T11:55:58;18.88;;;11.73;;
5819;SDS011;2936;47.348;9.640;2023-12-20T11:58:28;19.08;;;10.35;;
5819;SDS011;2936;47.348;9.640;2023-12-20T12:00:56;20.45;;;12.57;;
5819;SDS011;2936;47.348;9.640;2023-12-20T12:03:24;32.33;;;12.95;;
5819;SDS011;2936;47.348;9.640;2023-12-20T12:05:54;16.42;;;10.38;;
5819;SDS011;2936;47.348;9.640;2023-12-20T12:08:21;14.68;;;11.10;;
5819;SDS011;2936;47.348;9.640;2023-12-20T12:10:49;16.83;;;10.48;;
5819;SDS011;2936;47.348;9.640;2023-12-20T12:13:17;12.35;;;10.02;;
5819;SDS011;2936;47.348;9.640;2023-12-20T12:15:45;15.80;;;11.93;;
5819;SDS011;2936;47.348;9.640;2023-12-20T12:18:15;20.88;;;12.05;;
5819;SDS011;2936;47.348;9.640;2023-12-20T12:20:42;16.80;;;11.40;;
5819;SDS011;2936;47.348;9.640;2023-12-20T12:23:12;25.58;;;12.45;;
5819;SDS011;2936;47.348;9.640;2023-12-20T12:25:40;13.18;;;11.80;;
5819;SDS011;2936;47.348;9.640;2023-12-20T12:28:09;11.50;;;10.30;;
5819;SDS011;2936;47.348;9.640;2023-12-20T12:30:36;11.43;;;10.23;;
5819;SDS011;2936;47.348;9.640;2023-12-20T12:33:04;14.25;;;11.13;;
5819;SDS011;2936;47.348;9.640;2023-12-20T12:35:32;16.85;;;13.00;;
5819;SDS011;2936;47.348;9.640;2023-12-20T12:38:00;19.80;;;12.38;;
5819;SDS011;2936;47.348;9.640;2023-12-20T12:40:34;14.50;;;10.82;;
5819;SDS011;2936;47.348;9.640;2023-12-20T12:43:02;12.15;;;9.93;;
5819;SDS011;2936;47.348;9.640;2023-12-20T12:45:32;12.30;;;9.48;;
5819;SDS011;2936;47.348;9.640;2023-12-20T12:47:59;9.88;;;8.80;;
5819;SDS011;2936;47.348;9.640;2023-12-20T12:50:28;9.60;;;8.70;;
5819;SDS011;2936;47.348;9.640;2023-12-20T12:52:55;11.85;;;7.45;;
5819;SDS011;2936;47.348;9.640;2023-12-20T12:55:23;10.93;;;7.25;;
5819;SDS011;2936;47.348;9.640;2023-12-20T12:57:55;6.30;;;5.90;;
5819;SDS011;2936;47.348;9.640;2023-12-20T13:00:24;7.68;;;7.03;;
5819;SDS011;2936;47.348;9.640;2023-12-20T13:02:53;7.72;;;6.00;;
5819;SDS011;2936;47.348;9.640;2023-12-20T13:05:21;14.77;;;6.60;;
5819;SDS011;2936;47.348;9.640;2023-12-20T13:07:48;7.28;;;5.68;;
5819;SDS011;2936;47.348;9.640;2023-12-20T13:10:16;6.63;;;5.63;;
5819;SDS011;2936;47.348;9.640;2023-12-20T13:12:44;5.95;;;5.32;;
5819;SDS011;2936;47.348;9.640;2023-12-20T13:15:13;6.55;;;5.82;;
5819;SDS011;2936;47.348;9.640;2023-12-20T13:17:41;5.00;;;4.50;;
5819;SDS011;2936;47.348;9.640;2023-12-20T13:20:11;16.40;;;5.30;;
5819;SDS011;2936;47.348;9.640;2023-12-20T13:22:39;6.47;;;5.70;;
5819;SDS011;2936;47.348;9.640;2023-12-20T13:25:07;4.97;;;4.50;;
5819;SDS011;2936;47.348;9.640;2023-12-20T13:27:34;3.70;;;3.53;;
5819;SDS011;2936;47.348;9.640;2023-12-20T13:30:03;3.60;;;3.40;;
5819;SDS011;2936;47.348;9.640;2023-12-20T13:32:33;3.30;;;3.17;;
5819;SDS011;2936;47.348;9.640;2023-12-20T13:35:01;4.43;;;4.13;;
5819;SDS011;2936;47.348;9.640;2023-12-20T13:37:29;3.97;;;3.78;;
5819;SDS011;2936;47.348;9.640;2023-12-20T13:39:59;4.35;;;4.05;;
5819;SDS011;2936;47.348;9.640;2023-12-20T13:42:25;5.32;;;4.20;;
5819;SDS011;2936;47.348;9.640;2023-12-20T13:44:53;5.47;;;4.03;;
5819;SDS011;2936;47.348;9.640;2023-12-20T13:47:25;5.32;;;3.50;;
5819;SDS011;2936;47.348;9.640;2023-12-20T13:49:56;4.53;;;4.22;;
5819;SDS011;2936;47.348;9.640;2023-12-20T13:52:25;4.38;;;4.07;;
5819;SDS011;2936;47.348;9.640;2023-12-20T13:54:52;4.72;;;4.28;;
5819;SDS011;2936;47.348;9.640;2023-12-20T13:57:20;4.40;;;3.97;;
5819;SDS011;2936;47.348;9.640;2023-12-20T13:59:49;4.20;;;4.00;;
5819;SDS011;2936;47.348;9.640;2023-12-20T14:02:22;4.35;;;4.15;;
5819;SDS011;2936;47.348;9.640;2023-12-20T14:04:52;4.93;;;4.35;;
5819;SDS011;2936;47.348;9.640;2023-12-20T14:07:24;4.30;;;3.35;;
5819;SDS011;2936;47.348;9.640;2023-12-20T14:09:54;4.15;;;3.95;;
5819;SDS011;2936;47.348;9.640;2023-12-20T14:12:31;4.53;;;3.05;;
5819;SDS011;2936;47.348;9.640;2023-12-20T14:15:02;4.53;;;4.13;;
5819;SDS011;2936;47.348;9.640;2023-12-20T14:17:34;4.28;;;4.05;;
5819;SDS011;2936;47.348;9.640;2023-12-20T14:20:02;3.95;;;3.75;;
5819;SDS011;2936;47.348;9.640;2023-12-20T14:22:45;10.02;;;4.97;;
5819;SDS011;2936;47.348;9.640;2023-12-20T14:25:13;5.72;;;4.50;;
5819;SDS011;2936;47.348;9.640;2023-12-20T14:27:41;3.50;;;3.40;;
5819;SDS011;2936;47.348;9.640;2023-12-20T14:30:12;4.45;;;4.05;;
5819;SDS011;2936;47.348;9.640;2023-12-20T14:32:43;4.20;;;3.45;;
5819;SDS011;2936;47.348;9.640;2023-12-20T14:35:11;3.10;;;3.00;;
5819;SDS011;2936;47.348;9.640;2023-12-20T14:37:39;2.95;;;2.85;;
5819;SDS011;2936;47.348;9.640;2023-12-20T14:40:09;7.03;;;3.25;;
5819;SDS011;2936;47.348;9.640;2023-12-20T14:42:41;2.67;;;2.58;;
5819;SDS011;2936;47.348;9.640;2023-12-20T14:45:09;2.70;;;2.60;;
5819;SDS011;2936;47.348;9.640;2023-12-20T14:47:37;3.13;;;3.00;;
5819;SDS011;2936;47.348;9.640;2023-12-20T14:50:05;4.53;;;3.53;;
5819;SDS011;2936;47.348;9.640;2023-12-20T14:52:34;2.30;;;2.20;;
5819;SDS011;2936;47.348;9.640;2023-12-20T14:55:02;7.63;;;3.22;;
5819;SDS011;2936;47.348;9.640;2023-12-20T14:57:31;3.72;;;3.53;;
5819;SDS011;2936;47.348;9.640;2023-12-20T14:59:59;2.97;;;2.88;;
5819;SDS011;2936;47.348;9.640;2023-12-20T15:02:26;3.33;;;3.13;;
5819;SDS011;2936;47.348;9.640;2023-12-20T15:04:54;7.82;;;3.78;;
5819;SDS011;2936;47.348;9.640;2023-12-20T15:07:22;3.88;;;3.55;;
5819;SDS011;2936;47.348;9.640;2023-12-20T15:09:50;2.80;;;2.67;;